createdAt,value
2018-09-28T00:00:15.482Z,69.60
2018-09-28T00:02:44.056Z,69.80
2018-09-28T00:05:12.621Z,70.30
2018-09-28T00:07:41.031Z,70.30
2018-09-28T00:10:09.742Z,71.40
2018-09-28T00:12:38.367Z,70.50
2018-09-28T00:15:06.990Z,70.40
2018-09-28T00:17:35.479Z,70.50
2018-09-28T00:20:04.071Z,70.70
2018-09-28T00:22:32.440Z,71.00
2018-09-28T00:25:00.775Z,71.30
2018-09-28T00:27:29.132Z,71.30
2018-09-28T00:29:57.470Z,71.70
2018-09-28T00:32:25.836Z,71.60
2018-09-28T00:34:54.171Z,72.10
2018-09-28T00:37:22.696Z,72.70
2018-09-28T00:39:51.059Z,73.10
2018-09-28T00:42:19.400Z,73.50
2018-09-28T00:44:47.802Z,73.50
2018-09-28T00:47:16.139Z,73.30
2018-09-28T00:49:44.527Z,73.30
2018-09-28T00:52:12.872Z,73.20
2018-09-28T00:54:41.240Z,73.40
2018-09-28T00:57:09.576Z,73.80
2018-09-28T00:59:37.953Z,74.00
2018-09-28T01:02:06.307Z,73.60
2018-09-28T01:04:34.682Z,74.00
2018-09-28T01:07:03.047Z,73.90
2018-09-28T01:09:31.410Z,74.20
2018-09-28T01:11:59.751Z,74.40
2018-09-28T01:14:28.119Z,74.80
2018-09-28T01:16:56.680Z,74.80
2018-09-28T01:19:25.075Z,75.00
2018-09-28T01:21:53.419Z,75.60
2018-09-28T01:24:21.775Z,75.50
2018-09-28T01:26:50.114Z,75.60
2018-09-28T01:29:18.492Z,75.70
2018-09-28T01:31:46.839Z,75.30
2018-09-28T01:34:15.195Z,75.20
2018-09-28T01:36:43.567Z,74.90
2018-09-28T01:39:11.949Z,75.00
2018-09-28T01:41:40.307Z,74.80
2018-09-28T01:44:08.719Z,75.00
2018-09-28T01:46:37.129Z,74.70
2018-09-28T01:49:05.496Z,74.80
2018-09-28T01:51:33.834Z,74.60
2018-09-28T01:54:02.226Z,74.40
2018-09-28T01:56:30.609Z,74.50
2018-09-28T01:58:58.967Z,74.50
2018-09-28T02:01:27.320Z,74.60
2018-09-28T02:03:55.686Z,74.60
2018-09-28T02:06:24.078Z,74.70
2018-09-28T02:08:52.438Z,74.70
2018-09-28T02:11:20.780Z,74.70
2018-09-28T02:13:49.163Z,74.70
2018-09-28T02:16:17.504Z,74.80
2018-09-28T02:18:46.179Z,74.90
2018-09-28T02:21:14.567Z,74.90
2018-09-28T02:23:42.934Z,75.50
2018-09-28T02:26:11.299Z,75.90
2018-09-28T02:28:39.659Z,76.90
2018-09-28T02:31:08.007Z,77.60
2018-09-28T02:33:36.363Z,78.10
2018-09-28T02:36:04.732Z,78.60
2018-09-28T02:38:33.087Z,79.30
2018-09-28T02:41:01.464Z,79.50
2018-09-28T02:43:29.825Z,80.10
2018-09-28T02:45:58.202Z,80.60
2018-09-28T02:48:26.608Z,80.80
2018-09-28T02:50:54.987Z,81.30
2018-09-28T02:53:23.355Z,81.40
2018-09-28T02:55:51.735Z,81.60
2018-09-28T02:58:20.083Z,81.80
2018-09-28T03:00:48.643Z,81.80
2018-09-28T03:03:17.218Z,82.10
2018-09-28T03:05:45.598Z,82.20
2018-09-28T03:08:14.108Z,82.60
2018-09-28T03:10:42.567Z,83.10
2018-09-28T03:13:11.100Z,83.10
2018-09-28T03:15:39.523Z,83.60
2018-09-28T03:18:08.106Z,84.00
2018-09-28T03:20:36.646Z,84.50
2018-09-28T03:23:05.007Z,84.60
2018-09-28T03:25:33.372Z,85.00
2018-09-28T03:28:01.806Z,85.90
2018-09-28T03:30:30.214Z,86.00
2018-09-28T03:32:58.579Z,86.50
2018-09-28T03:35:26.956Z,86.80
2018-09-28T03:37:55.319Z,87.00
2018-09-28T03:40:23.690Z,86.90
2018-09-28T03:42:52.126Z,87.00
2018-09-28T03:45:20.531Z,86.60
2018-09-28T03:47:49.603Z,87.30
2018-09-28T03:50:18.032Z,87.60
2018-09-28T03:52:46.387Z,87.80
2018-09-28T03:55:14.811Z,88.10
2018-09-28T03:57:43.157Z,88.10
2018-09-28T04:00:12.017Z,88.70
2018-09-28T04:02:40.967Z,89.10
2018-09-28T04:05:09.332Z,89.80
2018-09-28T04:07:37.854Z,90.00
2018-09-28T04:10:07.072Z,90.10
2018-09-28T04:12:35.423Z,90.50
2018-09-28T04:15:03.917Z,90.50
2018-09-28T04:17:32.238Z,90.70
2018-09-28T04:20:00.658Z,90.80
2018-09-28T04:22:29.011Z,91.00
2018-09-28T04:24:57.392Z,90.90
2018-09-28T04:27:25.728Z,91.20
2018-09-28T04:29:54.090Z,91.30
2018-09-28T04:32:22.433Z,91.40
2018-09-28T04:34:50.815Z,91.50
2018-09-28T04:37:19.152Z,91.60
2018-09-28T04:39:47.600Z,91.70
2018-09-28T04:42:15.950Z,91.80
2018-09-28T04:44:44.439Z,92.00
2018-09-28T04:47:12.796Z,92.10
2018-09-28T04:49:41.139Z,92.20
2018-09-28T04:52:09.494Z,92.20
2018-09-28T04:54:37.928Z,92.60
2018-09-28T04:57:06.295Z,92.70
2018-09-28T04:59:34.642Z,93.20
2018-09-28T05:02:03.006Z,93.50
2018-09-28T05:04:31.360Z,93.80
2018-09-28T05:06:59.729Z,94.00
2018-09-28T05:09:28.073Z,94.10
2018-09-28T05:11:56.448Z,94.40
2018-09-28T05:14:24.831Z,94.40
2018-09-28T05:16:53.187Z,94.50
2018-09-28T05:19:21.581Z,94.40
2018-09-28T05:21:49.909Z,94.50
2018-09-28T05:24:18.252Z,94.40
2018-09-28T05:26:46.610Z,94.40
2018-09-28T05:29:14.950Z,94.40
2018-09-28T05:31:43.422Z,94.50
2018-09-28T05:34:11.704Z,94.50
2018-09-28T05:36:40.067Z,94.50
2018-09-28T05:39:09.027Z,94.50
2018-09-28T05:41:37.382Z,94.50
2018-09-28T05:44:05.711Z,94.60
2018-09-28T05:46:34.219Z,94.70
2018-09-28T05:49:02.596Z,94.60
2018-09-28T05:51:31.088Z,94.50
2018-09-28T05:53:59.411Z,94.50
2018-09-28T05:56:27.755Z,94.40
2018-09-28T05:59:01.417Z,94.20
2018-09-28T06:01:35.235Z,94.30
2018-09-28T06:04:09.160Z,94.20
2018-09-28T06:06:37.631Z,94.00
2018-09-28T06:09:08.628Z,94.00
2018-09-28T06:11:37.036Z,93.90
2018-09-28T06:14:05.402Z,93.90
2018-09-28T06:16:33.766Z,93.80
2018-09-28T06:19:02.158Z,93.70
2018-09-28T06:21:30.517Z,93.80
2018-09-28T06:23:58.945Z,93.70
2018-09-28T06:26:27.288Z,93.70
2018-09-28T06:28:55.872Z,93.50
2018-09-28T06:31:25.325Z,93.50
2018-09-28T06:33:53.727Z,93.40
2018-09-28T06:36:22.097Z,93.40
2018-09-28T06:38:50.450Z,93.20
2018-09-28T06:41:19.135Z,93.20
2018-09-28T06:43:47.498Z,93.10
2018-09-28T06:46:15.832Z,93.00
2018-09-28T06:48:44.187Z,92.80
2018-09-28T06:51:12.528Z,92.80
2018-09-28T06:53:41.554Z,92.90
2018-09-28T06:56:10.032Z,92.70
2018-09-28T06:58:39.388Z,92.80
2018-09-28T07:01:09.076Z,92.60
2018-09-28T07:03:39.046Z,92.50
2018-09-28T07:06:08.852Z,92.70
2018-09-28T07:08:38.443Z,92.50
2018-09-28T07:11:08.377Z,92.40
2018-09-28T07:13:37.523Z,92.30
2018-09-28T07:16:06.532Z,92.20
2018-09-28T07:18:35.574Z,92.20
2018-09-28T07:21:05.731Z,92.40
2018-09-28T07:23:35.286Z,91.80
2018-09-28T07:26:03.683Z,91.50
2018-09-28T07:28:32.092Z,91.30
2018-09-28T07:31:00.440Z,91.00
2018-09-28T07:33:28.803Z,91.00
2018-09-28T07:35:57.264Z,90.70
2018-09-28T07:38:26.051Z,90.50
2018-09-28T07:40:54.414Z,90.10
2018-09-28T07:43:23.162Z,90.00
2018-09-28T07:45:51.509Z,90.10
2018-09-28T07:48:19.926Z,89.30
2018-09-28T07:50:48.259Z,88.30
2018-09-28T07:53:16.702Z,87.70
2018-09-28T07:55:45.168Z,87.00
2018-09-28T07:58:13.478Z,86.50
2018-09-28T08:00:41.868Z,86.20
2018-09-28T08:03:10.248Z,86.20
2018-09-28T08:05:38.652Z,85.90
2018-09-28T08:08:07.062Z,84.90
2018-09-28T08:10:35.407Z,84.90
2018-09-28T08:13:03.775Z,85.10
2018-09-28T08:15:32.162Z,84.60
2018-09-28T08:18:00.649Z,83.70
2018-09-28T08:20:29.041Z,83.80
2018-09-28T08:22:57.392Z,83.00
2018-09-28T08:25:25.739Z,82.70
2018-09-28T08:27:54.122Z,81.90
2018-09-28T08:30:22.482Z,81.90
2018-09-28T08:32:50.824Z,81.00
2018-09-28T08:35:19.180Z,80.60
2018-09-28T08:37:47.612Z,81.00
2018-09-28T08:40:16.045Z,80.20
2018-09-28T08:42:44.454Z,80.20
2018-09-28T08:45:12.825Z,79.40
2018-09-28T08:47:41.155Z,79.60
2018-09-28T08:50:09.518Z,78.50
2018-09-28T08:52:37.864Z,78.00
2018-09-28T08:55:06.303Z,78.10
2018-09-28T08:57:34.659Z,78.20
2018-09-28T09:00:03.047Z,78.10
2018-09-28T09:02:31.427Z,76.90
2018-09-28T09:04:59.808Z,76.40
2018-09-28T09:07:28.227Z,76.00
2018-09-28T09:09:56.598Z,76.10
2018-09-28T09:12:24.960Z,75.20
2018-09-28T09:14:53.335Z,74.90
2018-09-28T09:17:21.708Z,74.70
2018-09-28T09:19:50.069Z,74.70
2018-09-28T09:22:18.412Z,73.90
2018-09-28T09:24:46.888Z,73.70
2018-09-28T09:27:15.227Z,74.20
2018-09-28T09:29:43.590Z,74.60
2018-09-28T09:32:11.906Z,74.30
2018-09-28T09:34:40.296Z,73.50
2018-09-28T09:37:08.639Z,73.30
2018-09-28T09:39:37.036Z,73.30
2018-09-28T09:42:05.384Z,73.10
2018-09-28T09:44:33.735Z,72.90
2018-09-28T09:47:02.097Z,72.00
2018-09-28T09:49:30.508Z,72.00
2018-09-28T09:51:58.835Z,71.70
2018-09-28T09:54:27.222Z,70.30
2018-09-28T09:56:55.770Z,70.00
2018-09-28T09:59:24.123Z,69.60
2018-09-28T10:01:57.658Z,69.20
2018-09-28T10:04:26.023Z,68.60
2018-09-28T10:06:54.637Z,68.70
2018-09-28T10:09:23.019Z,68.30
2018-09-28T10:11:51.389Z,67.70
2018-09-28T10:14:19.767Z,67.40
2018-09-28T10:16:48.207Z,66.50
2018-09-28T10:19:16.597Z,66.80
2018-09-28T10:21:44.946Z,66.90
2018-09-28T10:24:13.295Z,66.70
2018-09-28T10:26:41.695Z,66.00
2018-09-28T10:29:10.057Z,66.00
2018-09-28T10:31:38.463Z,65.70
2018-09-28T10:34:06.850Z,65.30
2018-09-28T10:36:35.172Z,65.10
2018-09-28T10:39:03.853Z,65.80
2018-09-28T10:41:32.304Z,65.30
2018-09-28T10:44:00.642Z,65.40
2018-09-28T10:46:29.080Z,65.00
2018-09-28T10:48:57.447Z,63.80
2018-09-28T10:51:25.966Z,63.50
2018-09-28T10:53:54.259Z,63.50
2018-09-28T10:56:22.651Z,63.40
2018-09-28T10:58:51.073Z,62.70
2018-09-28T11:01:19.371Z,62.20
2018-09-28T11:03:47.779Z,62.10
2018-09-28T11:06:16.105Z,61.90
2018-09-28T11:08:44.447Z,62.00
2018-09-28T11:11:12.829Z,62.30
2018-09-28T11:13:41.200Z,62.10
2018-09-28T11:16:09.628Z,62.10
2018-09-28T11:18:38.017Z,62.30
2018-09-28T11:21:06.422Z,60.30
2018-09-28T11:23:34.782Z,60.00
2018-09-28T11:26:03.145Z,59.70
2018-09-28T11:28:31.484Z,59.70
2018-09-28T11:30:59.860Z,59.90
2018-09-28T11:33:28.281Z,60.00
2018-09-28T11:35:56.567Z,60.00
2018-09-28T11:38:24.902Z,60.00
2018-09-28T11:40:53.307Z,59.90
2018-09-28T11:43:21.959Z,59.50
2018-09-28T11:45:50.294Z,59.00
2018-09-28T11:48:18.645Z,59.00
2018-09-28T11:50:47.078Z,58.40
2018-09-28T11:53:15.427Z,58.20
2018-09-28T11:55:43.762Z,57.50
2018-09-28T11:58:12.127Z,56.90
2018-09-28T12:00:40.481Z,56.90
2018-09-28T12:03:08.988Z,56.40
2018-09-28T12:05:37.320Z,56.50
2018-09-28T12:08:05.700Z,56.10
2018-09-28T12:10:34.635Z,56.50
2018-09-28T12:13:03.114Z,55.80
2018-09-28T12:15:31.490Z,55.60
2018-09-28T12:17:59.852Z,55.30
2018-09-28T12:20:28.199Z,55.20
2018-09-28T12:22:56.571Z,55.50
2018-09-28T12:25:24.976Z,55.90
2018-09-28T12:27:53.472Z,56.00
2018-09-28T12:30:21.856Z,56.10
2018-09-28T12:32:50.191Z,55.90
2018-09-28T12:35:18.892Z,55.20
2018-09-28T12:37:47.275Z,54.30
2018-09-28T12:40:15.636Z,53.80
2018-09-28T12:42:44.055Z,54.00
2018-09-28T12:45:12.975Z,54.10
2018-09-28T12:47:41.293Z,53.70
2018-09-28T12:50:09.685Z,53.90
2018-09-28T12:52:38.086Z,55.00
2018-09-28T12:55:06.608Z,54.80
2018-09-28T12:57:34.995Z,55.30
2018-09-28T13:00:03.365Z,56.30
2018-09-28T13:02:31.810Z,56.60
2018-09-28T13:05:00.144Z,56.70
2018-09-28T13:07:28.549Z,56.10
2018-09-28T13:09:56.927Z,55.20
2018-09-28T13:12:25.623Z,54.30
2018-09-28T13:14:54.124Z,54.30
2018-09-28T13:17:22.489Z,54.20
2018-09-28T13:19:50.888Z,54.00
2018-09-28T13:22:19.308Z,53.70
2018-09-28T13:24:47.704Z,53.90
2018-09-28T13:27:16.111Z,54.20
2018-09-28T13:29:44.575Z,54.60
2018-09-28T13:32:13.081Z,54.90
2018-09-28T13:34:41.453Z,55.50
2018-09-28T13:37:09.818Z,55.80
2018-09-28T13:39:38.200Z,56.00
2018-09-28T13:42:06.632Z,56.10
2018-09-28T13:44:35.001Z,55.80
2018-09-28T13:47:03.545Z,55.30
2018-09-28T13:49:31.940Z,54.10
2018-09-28T13:52:00.411Z,52.00
2018-09-28T13:54:28.749Z,52.50
2018-09-28T13:56:57.111Z,52.00
2018-09-28T13:59:25.494Z,51.90
2018-09-28T14:01:53.815Z,52.60
2018-09-28T14:04:22.217Z,52.70
2018-09-28T14:06:50.827Z,52.10
2018-09-28T14:09:19.309Z,50.80
2018-09-28T14:11:47.654Z,50.00
2018-09-28T14:14:16.160Z,49.80
2018-09-28T14:16:44.552Z,49.50
2018-09-28T14:19:12.871Z,50.00
2018-09-28T14:21:41.420Z,50.40
2018-09-28T14:24:09.900Z,50.90
2018-09-28T14:26:38.260Z,51.40
2018-09-28T14:29:06.604Z,51.80
2018-09-28T14:31:34.975Z,52.30
2018-09-28T14:34:03.324Z,52.40
2018-09-28T14:36:31.701Z,52.90
2018-09-28T14:39:00.116Z,53.40
2018-09-28T14:41:28.512Z,52.90
2018-09-28T14:43:56.855Z,51.80
2018-09-28T14:46:25.322Z,51.40
2018-09-28T14:48:53.831Z,51.50
2018-09-28T14:51:22.105Z,50.60
2018-09-28T14:53:53.297Z,49.30
2018-09-28T14:56:24.359Z,47.30
2018-09-28T14:58:54.124Z,47.80
2018-09-28T15:01:22.734Z,48.40
2018-09-28T15:03:51.079Z,49.20
2018-09-28T15:06:19.465Z,50.20
2018-09-28T15:08:47.930Z,50.10
2018-09-28T15:11:17.090Z,50.40
2018-09-28T15:13:45.476Z,50.80
2018-09-28T15:16:14.107Z,51.40
2018-09-28T15:18:42.490Z,51.20
2018-09-28T15:21:10.844Z,51.70
2018-09-28T15:23:39.190Z,51.20
2018-09-28T15:26:07.713Z,50.20
2018-09-28T15:28:36.114Z,50.30
2018-09-28T15:31:04.576Z,50.30
2018-09-28T15:33:32.951Z,50.50
2018-09-28T15:36:01.347Z,51.10
2018-09-28T15:38:29.694Z,50.80
2018-09-28T15:40:58.061Z,50.70
2018-09-28T15:43:26.399Z,50.20
2018-09-28T15:45:54.819Z,49.80
2018-09-28T15:48:23.221Z,49.10
2018-09-28T15:50:51.653Z,48.50
2018-09-28T15:53:20.033Z,48.20
2018-09-28T15:55:48.387Z,48.40
2018-09-28T15:58:16.743Z,48.80
2018-09-28T16:00:45.091Z,49.60
2018-09-28T16:03:13.442Z,50.00
2018-09-28T16:05:41.791Z,50.50
2018-09-28T16:08:10.160Z,50.80
2018-09-28T16:10:38.514Z,51.10
2018-09-28T16:13:06.908Z,51.10
2018-09-28T16:15:35.249Z,51.50
2018-09-28T16:18:03.691Z,52.20
2018-09-28T16:20:32.040Z,52.70
2018-09-28T16:23:00.409Z,53.20
2018-09-28T16:25:28.755Z,53.50
2018-09-28T16:27:57.119Z,53.80
2018-09-28T16:30:25.479Z,54.20
2018-09-28T16:32:53.919Z,54.20
2018-09-28T16:35:22.355Z,54.40
2018-09-28T16:37:50.731Z,54.50
2018-09-28T16:40:19.067Z,55.20
2018-09-28T16:42:47.418Z,54.60
2018-09-28T16:45:15.753Z,55.40
2018-09-28T16:47:44.130Z,55.40
2018-09-28T16:50:12.500Z,55.70
2018-09-28T16:52:40.834Z,55.70
2018-09-28T16:55:09.199Z,55.70
2018-09-28T16:57:37.821Z,55.90
2018-09-28T17:00:06.204Z,56.30
2018-09-28T17:02:34.548Z,56.50
2018-09-28T17:05:02.926Z,56.60
2018-09-28T17:07:31.278Z,56.70
2018-09-28T17:09:59.635Z,56.70
2018-09-28T17:12:28.016Z,56.60
2018-09-28T17:14:56.509Z,56.50
2018-09-28T17:17:24.874Z,56.60
2018-09-28T17:19:53.683Z,56.60
2018-09-28T17:22:22.139Z,56.70
2018-09-28T17:24:50.501Z,56.80
2018-09-28T17:27:18.875Z,57.40
2018-09-28T17:29:47.231Z,57.10
2018-09-28T17:32:15.608Z,57.20
2018-09-28T17:34:43.959Z,57.40
2018-09-28T17:37:13.399Z,58.20
2018-09-28T17:39:44.766Z,57.90
2018-09-28T17:42:15.289Z,58.10
2018-09-28T17:44:46.039Z,58.30
2018-09-28T17:47:16.801Z,58.70
2018-09-28T17:49:46.929Z,58.80
2018-09-28T17:52:16.822Z,59.50
2018-09-28T17:54:46.840Z,59.10
2018-09-28T17:57:17.012Z,59.40
2018-09-28T17:59:46.900Z,59.80
2018-09-28T18:02:17.979Z,60.00
2018-09-28T18:04:47.579Z,60.40
2018-09-28T18:07:18.557Z,60.80
2018-09-28T18:09:48.339Z,61.10
2018-09-28T18:12:17.192Z,61.50
2018-09-28T18:14:47.040Z,61.80
2018-09-28T18:17:16.753Z,62.20
2018-09-28T18:19:45.640Z,62.50
2018-09-28T18:22:14.503Z,63.00
2018-09-28T18:24:43.886Z,63.30
2018-09-28T18:27:12.701Z,63.70
2018-09-28T18:29:41.858Z,64.00
2018-09-28T18:32:11.368Z,64.40
2018-09-28T18:34:40.580Z,64.70
2018-09-28T18:37:09.437Z,65.10
2018-09-28T18:39:38.166Z,65.20
2018-09-28T18:42:06.996Z,65.40
2018-09-28T18:44:35.444Z,65.70
2018-09-28T18:47:03.924Z,66.10
2018-09-28T18:49:32.271Z,66.20
2018-09-28T18:52:00.643Z,66.50
2018-09-28T18:54:28.991Z,66.70
2018-09-28T18:56:57.361Z,66.90
2018-09-28T18:59:25.704Z,67.10
2018-09-28T19:01:54.065Z,67.40
2018-09-28T19:04:22.399Z,67.70
2018-09-28T19:06:50.794Z,67.80
2018-09-28T19:09:19.127Z,68.00
2018-09-28T19:11:47.512Z,68.20
2018-09-28T19:14:15.868Z,68.30
2018-09-28T19:16:44.225Z,68.40
2018-09-28T19:19:12.585Z,68.60
2018-09-28T19:21:41.055Z,68.70
2018-09-28T19:24:09.428Z,69.00
2018-09-28T19:26:37.947Z,69.30
2018-09-28T19:29:06.307Z,69.10
2018-09-28T19:31:34.651Z,69.20
2018-09-28T19:34:02.987Z,69.90
2018-09-28T19:36:31.447Z,70.10
2018-09-28T19:38:59.793Z,70.30
2018-09-28T19:41:28.156Z,70.80
2018-09-28T19:43:56.519Z,71.20
2018-09-28T19:46:24.875Z,71.50
2018-09-28T19:48:53.223Z,71.80
2018-09-28T19:51:21.586Z,72.40
2018-09-28T19:53:49.958Z,72.60
2018-09-28T19:56:18.316Z,73.00
2018-09-28T19:58:46.656Z,73.30
2018-09-28T20:01:15.149Z,73.20
2018-09-28T20:03:43.475Z,74.00
2018-09-28T20:06:11.845Z,73.40
2018-09-28T20:08:40.811Z,73.50
2018-09-28T20:11:09.215Z,73.50
2018-09-28T20:13:38.157Z,74.00
2018-09-28T20:16:06.644Z,74.30
2018-09-28T20:18:35.144Z,74.90
2018-09-28T20:21:03.515Z,74.80
2018-09-28T20:23:31.879Z,74.90
2018-09-28T20:26:01.230Z,75.50
2018-09-28T20:28:30.834Z,75.90
2018-09-28T20:31:00.380Z,76.00
2018-09-28T20:33:30.061Z,76.70
2018-09-28T20:35:59.643Z,76.50
2018-09-28T20:38:28.181Z,76.60
2018-09-28T20:40:56.549Z,76.80
2018-09-28T20:43:24.975Z,77.00
2018-09-28T20:45:53.771Z,77.10
2018-09-28T20:48:22.813Z,77.40
2018-09-28T20:50:51.186Z,77.60
2018-09-28T20:53:19.575Z,77.70
2018-09-28T20:55:47.960Z,77.90
2018-09-28T20:58:16.338Z,78.10
2018-09-28T21:00:45.483Z,78.70
2018-09-28T21:03:16.257Z,78.40
2018-09-28T21:05:45.144Z,78.40
2018-09-28T21:08:14.168Z,78.60
2018-09-28T21:10:45.855Z,78.80
2018-09-28T21:13:23.477Z,79.00
2018-09-28T21:15:52.088Z,79.10
2018-09-28T21:18:20.527Z,79.10
2018-09-28T21:20:48.861Z,79.40
2018-09-28T21:23:17.472Z,79.60
2018-09-28T21:25:45.815Z,79.80
2018-09-28T21:28:14.248Z,80.00
2018-09-28T21:30:42.608Z,80.10
2018-09-28T21:33:10.983Z,80.30
2018-09-28T21:35:39.317Z,80.60
2018-09-28T21:38:07.688Z,80.80
2018-09-28T21:40:36.123Z,80.90
2018-09-28T21:43:04.475Z,81.00
2018-09-28T21:45:32.820Z,81.10
2018-09-28T21:48:01.180Z,81.30
2018-09-28T21:50:29.510Z,81.30
2018-09-28T21:52:57.861Z,81.50
2018-09-28T21:55:26.205Z,81.70
2018-09-28T21:57:54.570Z,81.90
2018-09-28T22:00:22.931Z,81.90
2018-09-28T22:02:51.340Z,82.00
2018-09-28T22:05:19.671Z,82.20
2018-09-28T22:07:48.161Z,82.90
2018-09-28T22:10:16.488Z,81.70
2018-09-28T22:12:44.855Z,81.50
2018-09-28T22:15:13.239Z,81.60
2018-09-28T22:17:41.603Z,81.50
2018-09-28T22:20:09.987Z,81.90
2018-09-28T22:22:38.365Z,81.80
2018-09-28T22:25:06.735Z,82.70
2018-09-28T22:27:35.097Z,83.10
2018-09-28T22:30:03.470Z,83.00
2018-09-28T22:32:31.843Z,82.30
2018-09-28T22:35:00.205Z,82.00
2018-09-28T22:37:28.543Z,83.10
2018-09-28T22:39:56.912Z,83.40
2018-09-28T22:42:25.247Z,83.50
2018-09-28T22:44:53.605Z,83.90
2018-09-28T22:47:21.952Z,84.10
2018-09-28T22:49:50.300Z,84.30
2018-09-28T22:52:18.656Z,84.40
2018-09-28T22:54:47.019Z,84.50
2018-09-28T22:57:15.348Z,84.60
2018-09-28T22:59:43.704Z,84.70
2018-09-28T23:02:12.043Z,84.80
2018-09-28T23:04:40.404Z,84.50
2018-09-28T23:07:08.743Z,84.50
2018-09-28T23:09:37.284Z,83.50
2018-09-28T23:12:05.637Z,83.70
2018-09-28T23:14:34.024Z,83.50
2018-09-28T23:17:02.355Z,83.90
2018-09-28T23:19:30.703Z,84.20
2018-09-28T23:21:59.056Z,84.30
2018-09-28T23:24:27.478Z,85.20
2018-09-28T23:26:55.827Z,85.10
2018-09-28T23:29:24.194Z,85.40
2018-09-28T23:31:52.523Z,86.00
2018-09-28T23:34:20.936Z,86.00
2018-09-28T23:36:49.272Z,86.10
2018-09-28T23:39:17.739Z,86.30
2018-09-28T23:41:46.084Z,86.40
2018-09-28T23:44:14.479Z,86.10
2018-09-28T23:46:42.814Z,86.50
2018-09-28T23:49:11.264Z,86.40
2018-09-28T23:51:39.607Z,86.60
2018-09-28T23:54:07.960Z,86.70
2018-09-28T23:56:36.323Z,86.90
2018-09-28T23:59:04.687Z,87.00
